Time;durP1;ratioP1;P1;durP2;ratioP2;P2;SDS_P1;SDS_P2;PMS_P1;PMS_P2;Temp;Humidity;BMP_temperature;BMP_pressure;BME280_temperature;BME280_humidity;BME280_pressure;Samples;Min_cycle;Max_cycle;Signal;HPM_P1;HPM_P2
2022/08/10 00:01:12;;;;;;;1999.90;999.90;;;;;;;13.98;100.00;100757.88;5052237;28;20592;-51
2022/08/10 00:03:57;;;;;;;1999.90;999.90;;;;;;;13.98;100.00;100764.94;5055876;28;20102;-51
2022/08/10 00:06:41;;;;;;;1999.90;999.90;;;;;;;13.87;100.00;100767.78;5056314;28;20048;-51
2022/08/10 00:09:26;;;;;;;1999.90;999.90;;;;;;;13.89;100.00;100757.25;5057961;28;20060;-51
2022/08/10 00:12:11;;;;;;;1999.90;999.90;;;;;;;13.75;100.00;100760.22;5054837;28;20079;-52
2022/08/10 00:14:55;;;;;;;1999.90;999.90;;;;;;;13.66;100.00;100752.50;5053724;28;20105;-51
2022/08/10 00:17:40;;;;;;;1999.90;999.90;;;;;;;13.72;100.00;100758.50;5054219;28;20049;-51
2022/08/10 00:20:25;;;;;;;1999.90;999.90;;;;;;;13.65;100.00;100756.91;5054996;28;20055;-52
2022/08/10 00:23:09;;;;;;;1999.90;999.90;;;;;;;13.67;100.00;100747.19;5051705;28;20407;-52
2022/08/10 00:25:54;;;;;;;1999.90;999.90;;;;;;;13.61;100.00;100757.00;5052508;28;20064;-51
2022/08/10 00:28:38;;;;;;;1999.90;999.90;;;;;;;13.57;100.00;100750.94;5051473;28;20147;-51
2022/08/10 00:31:22;;;;;;;1999.90;999.90;;;;;;;13.49;100.00;100747.63;5054899;28;20059;-51
2022/08/10 00:34:07;;;;;;;1999.90;999.90;;;;;;;13.49;100.00;100752.91;5055529;28;20044;-51
2022/08/10 00:36:51;;;;;;;1999.90;999.90;;;;;;;13.47;100.00;100749.41;5052544;28;20045;-52
2022/08/10 00:39:36;;;;;;;1999.90;999.90;;;;;;;13.46;100.00;100748.56;5052824;28;20053;-51
2022/08/10 00:42:20;;;;;;;1999.90;999.90;;;;;;;13.32;100.00;100747.97;5053705;28;20052;-52
2022/08/10 00:45:05;;;;;;;1999.90;999.90;;;;;;;13.29;100.00;100750.66;5054220;28;20099;-52
2022/08/10 00:47:49;;;;;;;1999.90;999.90;;;;;;;13.33;100.00;100752.38;5052907;28;20064;-52
2022/08/10 00:50:34;;;;;;;1999.90;999.90;;;;;;;13.23;100.00;100750.78;5053151;28;20103;-51
2022/08/10 00:53:19;;;;;;;1999.90;999.90;;;;;;;13.25;100.00;100746.38;5053485;28;20045;-52
2022/08/10 00:56:04;;;;;;;1999.90;999.90;;;;;;;13.24;100.00;100749.88;5054495;28;20130;-51
2022/08/10 00:58:48;;;;;;;1999.90;999.90;;;;;;;13.27;100.00;100748.09;5052796;28;20163;-52
2022/08/10 01:01:32;;;;;;;1999.90;999.90;;;;;;;13.23;100.00;100743.75;5052648;28;20496;-51
2022/08/10 01:04:17;;;;;;;1999.90;999.90;;;;;;;13.15;100.00;100742.19;5055261;28;20070;-51
2022/08/10 01:07:11;;;;;;;1999.90;999.90;;;;;;;13.24;100.00;100740.25;5051757;28;20484;-51
2022/08/10 01:10:26;;;;;;;1999.90;999.90;;;;;;;13.11;100.00;100736.13;5054053;28;20106;-51
2022/08/10 01:13:26;;;;;;;1999.90;999.90;;;;;;;13.02;100.00;100738.94;5055547;28;20132;-51
2022/08/10 01:16:19;;;;;;;1999.90;999.90;;;;;;;12.91;100.00;100736.53;5055317;28;20425;-51
2022/08/10 01:19:20;;;;;;;1999.90;999.90;;;;;;;12.99;100.00;100736.38;5056993;28;20071;-51
2022/08/10 01:22:20;;;;;;;1999.90;999.90;;;;;;;13.05;100.00;100737.09;5058216;28;20400;-51
2022/08/10 01:25:50;;;;;;;1999.90;999.90;;;;;;;12.95;100.00;100737.34;5061417;28;20048;-51
2022/08/10 01:28:55;;;;;;;1999.90;999.90;;;;;;;12.91;100.00;100736.53;4996570;28;20054;-52
2022/08/10 01:31:43;;;;;;;1999.90;999.90;;;;;;;12.93;100.00;100750.50;5058669;28;20052;-52
2022/08/10 01:34:48;;;;;;;1999.90;999.90;;;;;;;12.91;100.00;100743.56;5060762;28;20048;-51
2022/08/10 01:37:38;;;;;;;1999.90;999.90;;;;;;;12.87;100.00;100740.13;5059874;28;20051;-50
2022/08/10 01:40:26;;;;;;;1999.90;999.90;;;;;;;12.89;100.00;100740.94;5060382;28;20176;-51
2022/08/10 01:43:13;;;;;;;1999.90;999.90;;;;;;;12.74;100.00;100741.22;5059774;28;20041;-51
2022/08/10 01:46:00;;;;;;;1999.90;999.90;;;;;;;12.72;100.00;100743.03;5061396;28;20045;-52
2022/08/10 01:48:52;;;;;;;1999.90;999.90;;;;;;;12.69;100.00;100738.72;5060126;28;20101;-51
2022/08/10 01:51:45;;;;;;;1999.90;999.90;;;;;;;12.72;100.00;100736.03;5060662;28;20068;-52
2022/08/10 01:54:30;;;;;;;1999.90;999.90;;;;;;;12.78;100.00;100735.03;5061129;28;20132;-51
2022/08/10 01:57:16;;;;;;;1999.90;999.90;;;;;;;12.70;100.00;100729.06;5056739;28;20083;-51
2022/08/10 02:00:01;;;;;;;1999.90;999.90;;;;;;;12.64;100.00;100735.28;5059335;28;21141;-51
2022/08/10 02:02:48;;;;;;;1999.90;999.90;;;;;;;12.65;100.00;100734.41;5073351;28;20098;-51
2022/08/10 02:05:36;;;;;;;1999.90;999.90;;;;;;;12.59;100.00;100735.38;5057353;28;20056;-51
2022/08/10 02:08:24;;;;;;;1999.90;999.90;;;;;;;12.60;100.00;100736.25;5057502;28;20087;-50
2022/08/10 02:11:10;;;;;;;1999.90;999.90;;;;;;;12.58;100.00;100733.66;5058423;28;20055;-51
2022/08/10 02:13:58;;;;;;;1999.90;999.90;;;;;;;12.53;100.00;100734.63;5055563;28;20079;-52
2022/08/10 02:16:46;;;;;;;1999.90;999.90;;;;;;;12.43;100.00;100736.56;5057018;28;20082;-52
2022/08/10 02:19:33;;;;;;;1999.90;999.90;;;;;;;12.49;100.00;100739.09;5059376;28;20471;-51
2022/08/10 02:22:19;;;;;;;1999.90;999.90;;;;;;;12.49;100.00;100736.44;5057893;28;20071;-51
2022/08/10 02:25:06;;;;;;;1999.90;999.90;;;;;;;12.47;100.00;100740.84;5057430;28;20048;-51
2022/08/10 02:27:52;;;;;;;1999.90;999.90;;;;;;;12.39;100.00;100740.16;5056671;28;20051;-51
2022/08/10 02:30:37;;;;;;;1999.90;999.90;;;;;;;12.27;100.00;100742.97;5055643;28;20091;-50
2022/08/10 02:33:25;;;;;;;1999.90;999.90;;;;;;;12.28;100.00;100745.56;5056627;28;20055;-51
2022/08/10 02:36:11;;;;;;;1999.90;999.90;;;;;;;12.25;100.00;100743.03;5057188;28;20055;-51
2022/08/10 02:38:58;;;;;;;1999.90;999.90;;;;;;;12.28;100.00;100744.69;5056403;28;20065;-51
2022/08/10 02:41:50;;;;;;;1999.90;999.90;;;;;;;12.27;100.00;100735.09;5057380;28;20083;-51
2022/08/10 02:44:45;;;;;;;1999.90;999.90;;;;;;;12.24;100.00;100735.16;5056587;28;20084;-51
2022/08/10 02:47:44;;;;;;;1999.90;999.90;;;;;;;12.23;100.00;100738.69;5053792;28;20475;-50
2022/08/10 02:50:33;;;;;;;1999.90;999.90;;;;;;;12.18;100.00;100740.50;5055285;28;20056;-51
2022/08/10 02:53:27;;;;;;;1999.90;999.90;;;;;;;12.06;100.00;100742.47;5055564;28;20068;-51
2022/08/10 02:56:20;;;;;;;1999.90;999.90;;;;;;;12.13;100.00;100745.84;5056226;28;20067;-50
2022/08/10 02:59:14;;;;;;;1999.90;999.90;;;;;;;12.13;100.00;100736.19;5054324;28;20044;-51
2022/08/10 03:02:01;;;;;;;;;;;;;;;12.08;100.00;100738.03;5055820;28;20090;-52
2022/08/10 03:04:48;;;;;;;1999.90;999.90;;;;;;;12.06;100.00;100738.97;5055577;28;19932;-52
2022/08/10 03:07:38;;;;;;;1999.90;999.90;;;;;;;11.91;100.00;100733.06;5055266;28;20419;-51
2022/08/10 03:10:27;;;;;;;1999.90;999.90;;;;;;;12.04;100.00;100744.22;5055310;28;20055;-51
2022/08/10 03:13:12;;;;;;;1999.90;999.90;;;;;;;11.95;100.00;100741.75;5053622;28;20098;-50
2022/08/10 03:16:00;;;;;;;1999.90;999.90;;;;;;;12.06;100.00;100749.47;5053760;28;20410;-51
2022/08/10 03:18:46;;;;;;;1999.90;999.90;;;;;;;12.03;100.00;100734.63;5053486;28;20488;-52
2022/08/10 03:21:33;;;;;;;1999.90;999.90;;;;;;;11.93;100.00;100740.91;5055511;28;20530;-51
2022/08/10 03:24:21;;;;;;;1999.90;999.90;;;;;;;11.87;100.00;100741.00;5055328;28;20091;-52
2022/08/10 03:27:07;;;;;;;1999.90;999.90;;;;;;;11.99;100.00;100750.44;5055132;28;20048;-50
2022/08/10 03:29:52;;;;;;;1999.90;999.90;;;;;;;12.02;100.00;100758.25;5053335;28;20514;-52
2022/08/10 03:32:38;;;;;;;1999.90;999.90;;;;;;;12.06;100.00;100742.47;5050999;28;20075;-51
2022/08/10 03:35:24;;;;;;;1999.90;999.90;;;;;;;11.99;100.00;100753.06;5052148;28;20051;-52
2022/08/10 03:38:09;;;;;;;1999.90;999.90;;;;;;;11.86;100.00;100750.66;5050483;28;20083;-51
2022/08/10 03:40:57;;;;;;;1999.90;999.90;;;;;;;11.95;100.00;100747.00;5051969;28;20059;-52
2022/08/10 03:43:46;;;;;;;1999.90;999.90;;;;;;;11.89;100.00;100758.47;5053533;28;20040;-51
2022/08/10 03:46:34;;;;;;;1999.90;999.90;;;;;;;11.90;100.00;100754.09;5057345;28;20105;-51
2022/08/10 03:49:20;;;;;;;1999.90;999.90;;;;;;;11.93;100.00;100756.66;5058495;28;20498;-51
2022/08/10 03:52:05;;;;;;;1999.90;999.90;;;;;;;12.00;100.00;100768.81;5057990;28;20049;-51
2022/08/10 03:54:51;;;;;;;1999.90;999.90;;;;;;;11.94;100.00;100763.66;5057228;28;20052;-51
2022/08/10 03:57:37;;;;;;;1999.90;999.90;;;;;;;12.02;100.00;100767.00;5053517;28;20095;-51
2022/08/10 04:00:22;;;;;;;1999.90;999.90;;;;;;;12.10;100.00;100769.53;5052548;28;20392;-51
2022/08/10 04:03:08;;;;;;;1999.90;999.90;;;;;;;12.06;100.00;100770.47;5053770;28;21082;-51
2022/08/10 04:05:53;;;;;;;1999.90;999.90;;;;;;;12.10;100.00;100778.28;5055972;28;20506;-51
2022/08/10 04:08:41;;;;;;;1999.90;999.90;;;;;;;12.17;100.00;100779.03;5058983;28;20051;-52
2022/08/10 04:11:25;;;;;;;1999.90;999.90;;;;;;;12.18;100.00;100779.91;5051987;28;20492;-51
2022/08/10 04:14:09;;;;;;;1999.90;999.90;;;;;;;12.20;100.00;100778.13;5052690;28;20250;-51
2022/08/10 04:16:54;;;;;;;1999.90;999.90;;;;;;;12.24;100.00;100777.16;5051267;28;20056;-51
2022/08/10 04:19:45;;;;;;;1999.90;999.90;;;;;;;12.21;100.00;100780.72;5051042;28;20052;-52
2022/08/10 04:22:32;;;;;;;1999.90;999.90;;;;;;;12.37;100.00;100770.81;5051852;28;20087;-51
2022/08/10 04:25:17;;;;;;;1999.90;999.90;;;;;;;12.54;100.00;100778.41;5053407;28;20052;-51
2022/08/10 04:28:02;;;;;;;1999.90;999.90;;;;;;;12.62;100.00;100761.59;5053856;28;20036;-51
2022/08/10 04:30:50;;;;;;;1999.90;999.90;;;;;;;12.88;100.00;100772.53;5052427;28;20048;-51
2022/08/10 04:33:38;;;;;;;1999.90;999.90;;;;;;;13.10;100.00;100772.09;5051808;28;20448;-52
2022/08/10 04:36:24;;;;;;;1999.90;999.90;;;;;;;13.37;100.00;100775.06;5054341;28;20570;-51
2022/08/10 04:39:10;;;;;;;1999.90;999.90;;;;;;;13.69;100.00;100776.13;5051220;28;20065;-52
2022/08/10 04:41:55;;;;;;;1999.90;999.90;;;;;;;13.99;100.00;100772.78;5052811;28;20579;-51
2022/08/10 04:44:41;;;;;;;1999.90;999.90;;;;;;;14.33;100.00;100776.34;5051093;28;20064;-52
2022/08/10 04:47:25;;;;;;;1999.90;999.90;;;;;;;14.80;100.00;100774.28;5050130;28;20132;-51
2022/08/10 04:50:10;;;;;;;1999.90;999.90;;;;;;;15.19;100.00;100778.44;5049799;28;20107;-52
2022/08/10 04:52:55;;;;;;;1999.90;999.90;;;;;;;15.60;100.00;100772.88;5049198;28;20057;-52
2022/08/10 04:55:39;;;;;;;1999.90;999.90;;;;;;;16.12;100.00;100771.25;5051556;28;20090;-51
2022/08/10 04:58:24;;;;;;;1999.90;999.90;;;;;;;16.22;100.00;100764.75;5055376;28;20103;-51
2022/08/10 05:01:09;;;;;;;1999.90;999.90;;;;;;;16.66;100.00;100772.91;5052691;28;20087;-52
2022/08/10 05:03:54;;;;;;;1999.90;999.90;;;;;;;17.09;100.00;100774.06;5057474;28;20041;-52
2022/08/10 05:06:39;;;;;;;1999.90;999.90;;;;;;;17.27;100.00;100775.19;5055278;28;20750;-51
2022/08/10 05:09:24;;;;;;;1999.90;999.90;;;;;;;17.70;100.00;100777.03;5055474;28;20068;-52
2022/08/10 05:12:08;;;;;;;1999.90;999.90;;;;;;;17.75;100.00;100777.72;5056623;28;20833;-52
2022/08/10 05:14:53;;;;;;;1999.90;999.90;;;;;;;18.04;100.00;100774.88;5056880;28;20133;-53
2022/08/10 05:17:39;;;;;;;1999.90;999.90;;;;;;;17.88;100.00;100786.09;5055180;28;20052;-53
2022/08/10 05:20:23;;;;;;;1999.90;999.90;;;;;;;18.05;100.00;100787.19;5057340;28;20434;-52
2022/08/10 05:23:08;;;;;;;1999.90;999.90;;;;;;;18.54;100.00;100786.00;5051949;28;20043;-52
2022/08/10 05:25:52;;;;;;;1999.90;999.90;;;;;;;18.34;100.00;100784.19;5057216;28;20055;-52
2022/08/10 05:28:37;;;;;;;1999.90;999.90;;;;;;;18.79;100.00;100782.34;5057655;28;20494;-53
2022/08/10 05:31:21;;;;;;;1999.90;999.90;;;;;;;18.44;100.00;100785.53;5058401;28;20083;-52
2022/08/10 05:34:06;;;;;;;1999.90;999.90;;;;;;;18.65;100.00;100786.44;5054351;28;20552;-53
2022/08/10 05:36:50;;;;;;;1999.90;999.90;;;;;;;18.66;100.00;100788.16;5050265;28;20085;-53
2022/08/10 05:39:38;;;;;;;1999.90;999.90;;;;;;;19.24;100.00;100791.81;5052685;28;20781;-53
2022/08/10 05:42:22;;;;;;;1999.90;999.90;;;;;;;19.24;100.00;100786.50;5052149;28;20048;-53
2022/08/10 05:45:19;;;;;;;1999.90;999.90;;;;;;;19.30;100.00;100791.53;5052632;28;20048;-52
2022/08/10 05:48:03;;;;;;;1999.90;999.90;;;;;;;18.99;100.00;100790.28;5052030;28;20735;-52
2022/08/10 05:50:48;;;;;;;1999.90;999.90;;;;;;;19.58;100.00;100796.44;5051249;28;20557;-53
2022/08/10 05:53:33;;;;;;;1999.90;999.90;;;;;;;20.03;100.00;100789.91;5051080;28;20123;-53
2022/08/10 05:56:17;;;;;;;1999.90;999.90;;;;;;;19.91;100.00;100793.16;5049296;28;20428;-53
2022/08/10 05:59:01;;;;;;;1999.90;999.90;;;;;;;20.04;100.00;100796.94;5049103;28;20212;-52
2022/08/10 06:01:48;;;;;;;1999.90;999.90;;;;;;;20.04;100.00;100794.28;5048491;28;20060;-53
2022/08/10 06:04:37;;;;;;;1999.90;999.90;;;;;;;20.33;100.00;100799.97;5051698;28;20052;-54
2022/08/10 06:07:26;;;;;;;1999.90;999.90;;;;;;;20.20;100.00;100786.41;5051769;28;20056;-53
2022/08/10 06:10:14;;;;;;;1999.90;999.90;;;;;;;20.79;100.00;100803.84;5051551;28;20045;-54
2022/08/10 06:16:07;;;;;;;1999.90;999.90;;;;;;;21.08;100.00;100796.13;5052847;28;20041;-53
2022/08/10 06:18:53;;;;;;;1999.90;999.90;;;;;;;20.67;100.00;100793.81;5053586;28;20068;-54
2022/08/10 06:21:39;;;;;;;1999.90;999.90;;;;;;;20.79;100.00;100790.53;5052817;28;20083;-54
2022/08/10 06:24:29;;;;;;;1999.90;999.90;;;;;;;21.33;100.00;100803.66;5054007;28;20707;-53
2022/08/10 06:27:13;;;;;;;1999.90;999.90;;;;;;;21.63;100.00;100799.34;5051708;28;20090;-54
2022/08/10 06:29:59;;;;;;;1999.90;999.90;;;;;;;21.83;100.00;100794.72;5053206;28;20044;-54
2022/08/10 06:32:44;;;;;;;1999.90;999.90;;;;;;;22.21;100.00;100805.03;5054079;28;20052;-55
2022/08/10 06:35:31;;;;;;;1999.90;999.90;;;;;;;22.15;100.00;100804.44;5054600;28;20060;-54
2022/08/10 06:38:17;;;;;;;1999.90;999.90;;;;;;;21.96;100.00;100810.88;5056762;28;20056;-54
2022/08/10 06:41:06;;;;;;;1999.90;999.90;;;;;;;22.04;100.00;100811.31;5056621;28;20057;-53
2022/08/10 06:43:58;;;;;;;1999.90;999.90;;;;;;;22.24;100.00;100819.06;5064699;28;20102;-54
2022/08/10 06:46:47;;;;;;;1999.90;999.90;;;;;;;22.46;100.00;100792.00;5066983;28;20056;-53
2022/08/10 06:49:32;;;;;;;1999.90;999.90;;;;;;;23.11;100.00;100802.34;5066759;28;20093;-54
2022/08/10 06:52:18;;;;;;;1999.90;999.90;;;;;;;22.53;100.00;100812.03;5061703;28;20068;-53
2022/08/10 06:55:04;;;;;;;1999.90;999.90;;;;;;;22.53;100.00;100812.03;5061375;28;20052;-54
2022/08/10 06:57:50;;;;;;;1999.90;999.90;;;;;;;22.80;100.00;100803.31;5061669;28;20503;-55
2022/08/10 07:00:40;;;;;;;1999.90;999.90;;;;;;;23.43;100.00;100794.09;5059554;28;20151;-54
2022/08/10 07:03:32;;;;;;;1999.90;999.90;;;;;;;23.33;100.00;100799.16;5058841;28;20040;-54
2022/08/10 07:06:19;;;;;;;1999.90;999.90;;;;;;;23.23;100.00;100806.91;5050881;28;20091;-55
2022/08/10 07:09:05;;;;;;;1999.90;999.90;;;;;;;23.48;100.00;100810.72;5059175;28;20063;-55
2022/08/10 07:11:51;;;;;;;1999.90;999.90;;;;;;;23.70;100.00;100805.75;5056608;28;20479;-55
2022/08/10 07:14:39;;;;;;;1999.90;999.90;;;;;;;22.57;100.00;100810.03;5053304;28;20066;-54
2022/08/10 07:17:25;;;;;;;1999.90;999.90;;;;;;;23.02;100.00;100805.56;5056017;28;20140;-56
2022/08/10 07:20:15;;;;;;;1999.90;999.90;;;;;;;23.63;100.00;100806.22;5057396;28;20106;-54
2022/08/10 07:23:01;;;;;;;1999.90;999.90;;;;;;;23.63;100.00;100800.88;5054814;28;20047;-55
2022/08/10 07:25:48;;;;;;;1999.90;999.90;;;;;;;23.78;100.00;100806.13;5055913;28;20129;-54
2022/08/10 07:28:33;;;;;;;1999.90;999.90;;;;;;;23.94;100.00;100802.47;5057778;28;21868;-55
2022/08/10 07:31:20;;;;;;;1999.90;999.90;;;;;;;24.25;100.00;100802.16;5058204;28;20106;-55
2022/08/10 07:34:08;;;;;;;1999.90;999.90;;;;;;;24.58;100.00;100795.53;5057335;28;20090;-55
2022/08/10 07:36:57;;;;;;;1999.90;999.90;;;;;;;24.80;100.00;100796.75;5056479;28;20048;-55
2022/08/10 07:39:45;;;;;;;1999.90;999.90;;;;;;;24.06;100.00;100796.31;5059004;28;20044;-55
2022/08/10 07:42:31;;;;;;;1999.90;999.90;;;;;;;24.63;96.55;100797.88;5057031;28;20041;-54
2022/08/10 07:45:15;;;;;;;1999.90;999.90;;;;;;;25.17;94.04;100798.59;5058959;28;20074;-55
2022/08/10 07:48:05;;;;;;;1999.90;999.90;;;;;;;25.36;92.18;100792.78;5056468;28;20392;-54
2022/08/10 07:50:54;;;;;;;1999.90;999.90;;;;;;;23.95;91.61;100802.38;5057887;28;20129;-54
2022/08/10 07:53:45;;;;;;;1999.90;999.90;;;;;;;25.08;89.88;100806.38;5056873;28;20087;-55
2022/08/10 07:56:30;;;;;;;1999.90;999.90;;;;;;;25.27;90.45;100805.97;5057257;28;20063;-56
2022/08/10 07:59:21;;;;;;;1999.90;999.90;;;;;;;25.30;80.57;100801.25;5054587;28;20059;-55
2022/08/10 08:02:12;;;;;;;1999.90;999.90;;;;;;;24.83;88.80;100801.84;5054958;28;20053;-55
2022/08/10 08:05:01;;;;;;;1999.90;999.90;;;;;;;25.20;85.80;100800.19;5058488;28;20431;-54
2022/08/10 08:07:47;;;;;;;1999.90;999.90;;;;;;;25.37;83.28;100797.16;5058388;28;20167;-55
2022/08/10 08:10:33;;;;;;;1999.90;999.90;;;;;;;25.35;86.67;100804.47;5056122;28;20055;-55
2022/08/10 08:13:21;;;;;;;1999.90;999.90;;;;;;;25.33;82.21;100802.88;5056833;28;20090;-55
2022/08/10 08:16:08;;;;;;;1999.90;999.90;;;;;;;25.26;80.69;100793.56;5049629;28;20087;-55
2022/08/10 08:18:55;;;;;;;1999.90;999.90;;;;;;;25.46;81.61;100790.28;5050370;28;20142;-54
2022/08/10 08:21:41;;;;;;;1999.90;999.90;;;;;;;25.88;84.72;100794.41;5051591;28;20118;-55
2022/08/10 08:24:27;;;;;;;1999.90;999.90;;;;;;;25.47;80.48;100792.00;5056832;28;20053;-55
2022/08/10 08:27:18;;;;;;;1999.90;999.90;;;;;;;25.98;81.99;100791.88;5053842;28;20408;-55
2022/08/10 08:30:03;;;;;;;1999.90;999.90;;;;;;;26.64;77.19;100786.94;5055266;28;20101;-55
2022/08/10 08:32:48;;;;;;;1999.90;999.90;;;;;;;25.80;77.26;100783.34;5055611;28;20048;-54
2022/08/10 08:35:33;;;;;;;1999.90;999.90;;;;;;;26.13;77.10;100783.66;5058757;28;20538;-54
2022/08/10 08:38:18;;;;;;;1999.90;999.90;;;;;;;25.85;78.27;100788.41;5054596;28;20060;-55
2022/08/10 08:41:29;;;;;;;1999.90;999.90;;;;;;;26.63;75.88;100777.16;5054700;28;20052;-55
2022/08/10 08:44:26;;;;;;;1999.90;999.90;;;;;;;26.06;77.91;100783.25;5056727;28;20391;-55
2022/08/10 08:47:28;;;;;;;1999.90;999.90;;;;;;;27.38;77.64;100782.03;5053304;28;20037;-54
2022/08/10 08:50:28;;;;;;;1999.90;999.90;;;;;;;26.83;78.05;100781.00;5054133;28;20542;-55
2022/08/10 08:53:18;;;;;;;1999.90;999.90;;;;;;;26.69;70.07;100779.38;5055145;28;20371;-55
2022/08/10 08:56:27;;;;;;;1999.90;999.90;;;;;;;27.18;77.73;100786.31;5056513;28;20048;-55
2022/08/10 08:59:29;;;;;;;1999.90;999.90;;;;;;;26.26;70.60;100779.06;5053919;28;20494;-56
2022/08/10 09:02:42;;;;;;;1999.90;999.90;;;;;;;26.76;70.47;100777.94;5057257;28;20067;-55
2022/08/10 09:05:35;;;;;;;1999.90;999.90;;;;;;;27.17;71.39;100783.72;5058247;28;20109;-56
2022/08/10 09:08:57;;;;;;;1999.90;999.90;;;;;;;26.21;73.86;100782.13;5055699;28;20037;-55
2022/08/10 09:11:50;;;;;;;1999.90;999.90;;;;;;;26.53;71.20;100777.03;5051584;28;20041;-54
2022/08/10 09:14:43;;;;;;;1999.90;999.90;;;;;;;27.08;70.34;100774.56;5055246;28;20080;-56
2022/08/10 09:17:53;;;;;;;1999.90;999.90;;;;;;;27.01;69.61;100771.50;5055808;28;20606;-52
2022/08/10 09:20:58;;;;;;;1999.90;999.90;;;;;;;27.61;72.50;100773.94;5054755;28;20051;-55
2022/08/10 09:24:02;;;;;;;1999.90;999.90;;;;;;;27.36;68.77;100770.53;5054390;28;20041;-56
2022/08/10 09:26:52;;;;;;;1999.90;999.90;;;;;;;27.17;69.56;100776.56;5057625;28;20106;-55
2022/08/10 09:29:45;;;;;;;1999.90;999.90;;;;;;;26.80;69.94;100776.69;5055154;28;20503;-55
2022/08/10 09:32:37;;;;;;;1999.90;999.90;;;;;;;27.14;68.00;100770.56;5054876;28;20085;-56
2022/08/10 09:35:46;;;;;;;1999.90;999.90;;;;;;;27.78;73.63;100777.97;5055518;28;20037;-56
2022/08/10 09:38:58;;;;;;;1999.90;999.90;;;;;;;27.58;68.56;100766.13;5060143;28;20075;-56
2022/08/10 09:41:56;;;;;;;1999.90;999.90;;;;;;;27.34;69.98;100766.28;5061447;28;20726;-56
2022/08/10 09:44:42;;;;;;;1999.90;999.90;;;;;;;27.66;68.72;100769.06;5060415;28;20088;-55
2022/08/10 09:47:56;;;;;;;1999.90;999.90;;;;;;;28.17;67.11;100771.13;5058613;28;20134;-56
2022/08/10 09:50:54;;;;;;;1999.90;999.90;;;;;;;28.17;64.46;100763.88;5052948;28;20047;-56
2022/08/10 09:54:06;;;;;;;1999.90;999.90;;;;;;;27.79;67.01;100769.78;5055446;28;20055;-53
2022/08/10 09:57:00;;;;;;;1999.90;999.90;;;;;;;27.84;64.66;100769.41;5056706;28;20125;-56
2022/08/10 09:59:50;;;;;;;1999.90;999.90;;;;;;;27.96;62.72;100755.78;5049635;28;20044;-56
2022/08/10 10:03:02;;;;;;;1999.90;999.90;;;;;;;28.09;67.20;100758.31;5054595;28;20068;-56
2022/08/10 10:06:04;;;;;;;1999.90;999.90;;;;;;;27.88;67.27;100750.16;5064172;28;20051;-54
2022/08/10 10:09:04;;;;;;;1999.90;999.90;;;;;;;27.63;57.05;100754.00;5059545;28;20051;-54
2022/08/10 10:12:05;;;;;;;1999.90;999.90;;;;;;;28.67;57.08;100743.59;5065432;28;20037;-52
2022/08/10 10:15:19;;;;;;;1999.90;999.90;;;;;;;28.67;59.54;100749.00;5060358;28;20036;-54
2022/08/10 10:18:06;;;;;;;1999.90;999.90;;;;;;;27.08;65.68;100752.19;5064732;28;20036;-53
2022/08/10 10:20:57;;;;;;;1999.90;999.90;;;;;;;27.42;59.87;100743.16;5070802;28;20415;-53
2022/08/10 10:24:02;;;;;;;1999.90;999.90;;;;;;;27.78;60.69;100746.53;5060333;28;20049;-54
2022/08/10 10:26:51;;;;;;;1999.90;999.90;;;;;;;28.55;60.77;100732.88;5064439;28;20044;-53
2022/08/10 10:29:58;;;;;;;1999.90;999.90;;;;;;;27.83;59.36;100744.31;5065086;28;20063;-53
2022/08/10 10:33:07;;;;;;;1999.90;999.90;;;;;;;28.24;59.84;100728.38;5055712;28;20041;-53
2022/08/10 10:35:55;;;;;;;1999.90;999.90;;;;;;;27.45;60.36;100715.16;5056116;28;20116;-53
2022/08/10 10:38:41;;;;;;;1999.90;999.90;;;;;;;28.13;58.76;100727.44;5070370;28;20047;-53
2022/08/10 10:41:39;;;;;;;1999.90;999.90;;;;;;;27.38;59.57;100722.00;5064496;28;20135;-53
2022/08/10 10:44:56;;;;;;;1999.90;999.90;;;;;;;27.74;58.57;100721.69;5064973;28;20048;-53
2022/08/10 10:47:45;;;;;;;1999.90;999.90;;;;;;;28.21;57.90;100710.66;5061417;28;20105;-54
2022/08/10 10:50:39;;;;;;;1999.90;999.90;;;;;;;28.29;56.25;100716.22;5054493;28;20443;-54
2022/08/10 10:53:38;;;;;;;1999.90;999.90;;;;;;;27.83;54.46;100711.19;5066186;28;20037;-55
2022/08/10 10:56:33;;;;;;;1999.90;999.90;;;;;;;27.19;59.73;100714.56;5057887;28;20048;-53
2022/08/10 10:59:36;;;;;;;1999.90;999.90;;;;;;;27.89;55.97;100703.44;5069186;28;20139;-52
2022/08/10 11:02:42;;;;;;;1999.90;999.90;;;;;;;28.03;58.48;100718.44;5062410;28;20052;-54
2022/08/10 11:05:29;;;;;;;1999.90;999.90;;;;;;;28.03;56.73;100707.66;5062090;28;20049;-54
2022/08/10 11:08:34;;;;;;;1999.90;999.90;;;;;;;27.49;54.71;100709.41;5060570;28;20049;-53
2022/08/10 11:11:39;;;;;;;1999.90;999.90;;;;;;;26.50;57.33;100709.25;5067704;28;20049;-54
2022/08/10 11:14:40;;;;;;;1999.90;999.90;;;;;;;26.83;57.61;100716.50;5062229;28;20051;-52
2022/08/10 11:17:44;;;;;;;1999.90;999.90;;;;;;;27.43;56.70;100709.91;5068197;28;20071;-53
2022/08/10 11:20:39;;;;;;;1999.90;999.90;;;;;;;26.16;57.47;100708.25;5072036;28;20043;-53
2022/08/10 11:23:52;;;;;;;1999.90;999.90;;;;;;;26.84;65.47;100704.75;5060555;28;20091;-53
2022/08/10 11:26:44;;;;;;;1999.90;999.90;;;;;;;26.93;63.03;100704.03;5058327;28;20049;-53
2022/08/10 11:29:31;;;;;;;1999.90;999.90;;;;;;;27.32;59.90;100701.00;5062045;28;20103;-52
2022/08/10 11:32:33;;;;;;;1999.90;999.90;;;;;;;27.33;59.22;100697.31;5059428;28;20232;-54
2022/08/10 11:35:35;;;;;;;1999.90;999.90;;;;;;;25.88;62.87;100694.25;5066858;28;20055;-53
2022/08/10 11:38:33;;;;;;;1999.90;999.90;;;;;;;25.46;62.64;100693.75;5064010;28;20052;-52
2022/08/10 11:41:40;;;;;;;1999.90;999.90;;;;;;;25.23;63.38;100698.13;5060882;28;20105;-52
2022/08/10 11:44:28;;;;;;;1999.90;999.90;;;;;;;25.36;63.38;100700.78;5056693;28;20071;-53
2022/08/10 11:47:22;;;;;;;1999.90;999.90;;;;;;;25.48;63.29;100688.28;5059891;28;20059;-52
2022/08/10 11:50:22;;;;;;;1999.90;999.90;;;;;;;27.02;59.00;100689.88;5062604;28;20115;-53
2022/08/10 11:53:26;;;;;;;1999.90;999.90;;;;;;;27.39;58.41;100686.06;5061860;28;20523;-53
2022/08/10 11:56:22;;;;;;;1999.90;999.90;;;;;;;27.63;59.71;100689.44;5068133;28;20043;-53
2022/08/10 12:02:13;;;;;;;1999.90;999.90;;;;;;;27.27;56.05;100690.63;5055315;28;20041;-54
2022/08/10 12:05:05;;;;;;;1999.90;999.90;;;;;;;27.31;54.15;100688.53;5056802;28;20092;-54
2022/08/10 12:07:54;;;;;;;1999.90;999.90;;;;;;;27.13;55.48;100689.03;5069538;28;20098;-54
2022/08/10 12:10:41;;;;;;;1999.90;999.90;;;;;;;27.78;59.18;100684.63;5064544;28;20084;-54
2022/08/10 12:13:36;;;;;;;1999.90;999.90;;;;;;;27.68;62.67;100689.91;5052621;28;20083;-54
2022/08/10 12:16:24;;;;;;;1999.90;999.90;;;;;;;27.02;58.80;100679.13;5055140;28;20079;-53
2022/08/10 12:19:41;;;;;;;1999.90;999.90;;;;;;;26.31;61.88;100696.34;5058216;28;20049;-54
2022/08/10 12:22:34;;;;;;;1999.90;999.90;;;;;;;26.71;59.54;100690.59;5035407;28;20878;-54
2022/08/10 12:25:26;;;;;;;1999.90;999.90;;;;;;;26.95;56.29;100690.50;5057915;28;20051;-53
2022/08/10 12:28:19;;;;;;;1999.90;999.90;;;;;;;27.00;59.97;100669.47;5056064;28;20055;-55
2022/08/10 12:31:09;;;;;;;1999.90;999.90;;;;;;;26.46;60.46;100667.47;5054834;28;20056;-53